createdAt,value
2022-11-18T00:01:24.255Z,10.17
2022-11-18T00:03:52.949Z,10.06
2022-11-18T00:06:23.479Z,10.02
2022-11-18T00:08:53.365Z,10.05
2022-11-18T00:11:41.024Z,10.05
2022-11-18T00:14:23.607Z,10.10
2022-11-18T00:16:54.301Z,10.07
2022-11-18T00:19:23.288Z,10.04
2022-11-18T00:21:51.306Z,10.03
2022-11-18T00:24:20.759Z,10.04
2022-11-18T00:26:48.473Z,10.04
2022-11-18T00:29:17.015Z,10.02
2022-11-18T00:31:45.401Z,9.99
2022-11-18T00:34:15.034Z,9.98
2022-11-18T00:36:43.683Z,9.99
2022-11-18T00:39:12.285Z,10.00
2022-11-18T00:41:59.007Z,9.98
2022-11-18T00:44:26.925Z,9.97
2022-11-18T00:46:54.995Z,9.93
2022-11-18T00:49:22.919Z,9.91
2022-11-18T00:51:50.506Z,9.90
2022-11-18T00:54:18.442Z,9.88
2022-11-18T00:56:47.447Z,9.92
2022-11-18T00:59:15.276Z,9.96
2022-11-18T01:01:43.137Z,9.98
2022-11-18T01:04:10.817Z,10.00
2022-11-18T01:06:38.505Z,10.00
2022-11-18T01:09:06.395Z,10.03
2022-11-18T01:11:51.394Z,10.02
2022-11-18T01:14:20.396Z,9.99
2022-11-18T01:16:51.196Z,9.94
2022-11-18T01:19:19.363Z,9.86
2022-11-18T01:21:47.485Z,9.83
2022-11-18T01:24:15.607Z,9.82
2022-11-18T01:26:43.693Z,9.83
2022-11-18T01:29:11.515Z,9.83
2022-11-18T01:31:55.653Z,9.84
2022-11-18T01:34:29.052Z,9.87
2022-11-18T01:36:58.550Z,9.87
2022-11-18T01:39:26.142Z,9.85
2022-11-18T01:41:53.981Z,9.83
2022-11-18T01:45:10.493Z,9.85
2022-11-18T01:47:43.308Z,9.84
2022-11-18T01:50:11.869Z,9.83
2022-11-18T01:52:40.787Z,9.82
2022-11-18T01:55:15.547Z,9.82
2022-11-18T01:57:44.270Z,9.80
2022-11-18T02:00:13.643Z,9.77
2022-11-18T02:02:43.086Z,9.72
2022-11-18T02:05:12.732Z,9.72
2022-11-18T02:07:43.582Z,9.72
2022-11-18T02:10:19.630Z,9.73
2022-11-18T02:12:47.579Z,9.75
2022-11-18T02:15:15.431Z,9.76
2022-11-18T02:17:52.857Z,9.77
2022-11-18T02:20:27.978Z,9.76
2022-11-18T02:23:37.167Z,9.77
2022-11-18T02:26:47.103Z,9.75
2022-11-18T02:29:19.457Z,9.75
2022-11-18T02:31:53.419Z,9.75
2022-11-18T02:34:33.334Z,9.76
2022-11-18T02:37:07.439Z,9.82
2022-11-18T02:39:40.588Z,9.82
2022-11-18T02:42:12.941Z,9.81
2022-11-18T02:44:46.571Z,9.83
2022-11-18T02:47:16.848Z,9.84
2022-11-18T02:49:49.504Z,9.84
2022-11-18T02:52:25.061Z,9.86
2022-11-18T02:54:53.983Z,9.87
2022-11-18T02:57:23.347Z,9.89
2022-11-18T02:59:52.414Z,9.88
2022-11-18T03:02:21.430Z,9.88
2022-11-18T03:04:52.701Z,9.89
2022-11-18T03:07:26.023Z,9.91
2022-11-18T03:09:54.237Z,9.90
2022-11-18T03:12:28.843Z,9.89
2022-11-18T03:15:08.230Z,9.92
2022-11-18T03:17:47.100Z,9.96
2022-11-18T03:20:22.094Z,9.98
2022-11-18T03:22:55.749Z,10.01
2022-11-18T03:25:28.911Z,10.03
2022-11-18T03:28:04.248Z,10.05
2022-11-18T03:30:34.210Z,10.05
2022-11-18T03:33:06.886Z,10.01
2022-11-18T08:27:25.196Z,9.20
2022-11-18T08:29:52.866Z,9.22
2022-11-18T08:32:20.475Z,9.22
2022-11-18T08:34:48.050Z,9.22
2022-11-18T08:37:15.578Z,9.19
2022-11-18T08:39:43.431Z,9.20
2022-11-18T08:42:11.667Z,9.16
2022-11-18T08:44:40.632Z,9.11
2022-11-18T08:47:08.107Z,9.08
2022-11-18T08:49:35.615Z,9.06
2022-11-18T08:52:03.159Z,9.08
2022-11-18T08:54:31.591Z,9.12
2022-11-18T08:56:59.176Z,9.05
2022-11-18T08:59:33.620Z,8.99
2022-11-18T09:02:02.524Z,8.93
2022-11-18T09:04:30.177Z,8.90
2022-11-18T09:06:57.791Z,8.90
2022-11-18T09:09:25.356Z,8.89
2022-11-18T09:11:52.933Z,8.89
2022-11-18T09:17:44.407Z,8.91
2022-11-18T09:20:12.386Z,8.88
2022-11-18T09:22:40.295Z,8.87
2022-11-18T09:25:09.235Z,8.85
2022-11-18T09:27:36.903Z,8.85
2022-11-18T09:30:05.216Z,8.87
2022-11-18T09:32:33.542Z,8.87
2022-11-18T09:37:32.141Z,8.89
2022-11-18T09:39:59.750Z,8.88
2022-11-18T09:42:40.793Z,8.87
2022-11-18T09:45:23.592Z,8.84
2022-11-18T09:47:52.625Z,8.81
2022-11-18T09:53:20.522Z,8.80
2022-11-18T09:55:49.777Z,8.82
2022-11-18T09:58:22.275Z,8.85
2022-11-18T10:00:49.829Z,8.89
2022-11-18T10:03:24.421Z,8.92
2022-11-18T10:05:56.695Z,8.90
2022-11-18T10:08:29.010Z,8.85
2022-11-18T10:11:04.747Z,8.86
2022-11-18T10:13:49.939Z,8.86
2022-11-18T10:16:30.225Z,8.88
2022-11-18T10:19:06.178Z,8.90
2022-11-18T10:21:46.001Z,8.92
2022-11-18T10:24:20.737Z,8.97
2022-11-18T10:26:49.043Z,8.98
2022-11-18T10:29:16.750Z,8.98
2022-11-18T10:32:01.163Z,9.00
2022-11-18T10:34:32.217Z,9.01
2022-11-18T10:37:01.754Z,9.01
2022-11-18T10:39:30.665Z,9.00
2022-11-18T10:42:02.264Z,9.02
2022-11-18T10:44:33.226Z,9.04
2022-11-18T10:47:23.659Z,9.01
2022-11-18T10:49:51.867Z,9.01
2022-11-18T10:52:19.874Z,9.05
2022-11-18T10:55:08.236Z,9.07
2022-11-18T10:57:39.052Z,9.08
2022-11-18T11:00:09.125Z,9.07
2022-11-18T11:02:41.800Z,9.06
2022-11-18T11:05:20.080Z,9.01
2022-11-18T11:08:29.225Z,9.02
2022-11-18T11:10:57.785Z,9.05
2022-11-18T11:13:29.240Z,9.10
2022-11-18T11:16:00.380Z,9.13
2022-11-18T11:18:45.065Z,9.13
2022-11-18T11:21:13.758Z,9.16
2022-11-18T11:23:41.787Z,9.16
2022-11-18T11:29:13.179Z,9.19
2022-11-18T11:31:51.756Z,9.22
2022-11-18T11:34:45.640Z,9.25
2022-11-18T11:37:31.410Z,9.28
2022-11-18T11:40:12.652Z,9.30
2022-11-18T11:42:50.261Z,9.31
2022-11-18T11:45:20.955Z,9.29
2022-11-18T11:48:03.880Z,9.28
2022-11-18T11:51:02.003Z,9.30
2022-11-18T11:53:53.274Z,9.30
2022-11-18T11:56:33.512Z,9.33
2022-11-18T11:59:19.607Z,9.36
2022-11-18T12:02:03.349Z,9.36
2022-11-18T12:04:43.920Z,9.35
2022-11-18T12:07:16.855Z,9.34
2022-11-18T12:09:58.874Z,9.35
2022-11-18T12:12:36.638Z,9.38
2022-11-18T12:15:26.897Z,9.37
2022-11-18T12:18:03.903Z,9.38
2022-11-18T12:20:42.627Z,9.40
2022-11-18T12:23:12.224Z,9.42
2022-11-18T12:26:03.072Z,9.43
2022-11-18T12:28:33.608Z,9.45
2022-11-18T12:31:37.024Z,9.42
2022-11-18T12:34:06.346Z,9.45
2022-11-18T12:36:35.866Z,9.41
2022-11-18T12:39:45.350Z,9.41
2022-11-18T12:42:54.900Z,9.41
2022-11-18T12:45:58.996Z,9.39
2022-11-18T12:48:34.481Z,9.38
2022-11-18T12:51:03.051Z,9.37
2022-11-18T12:53:38.936Z,9.40
2022-11-18T12:56:23.444Z,9.37
2022-11-18T12:58:53.956Z,9.32
2022-11-18T13:01:23.254Z,9.28
2022-11-18T13:03:52.912Z,9.30
2022-11-18T13:06:25.820Z,9.31
2022-11-18T13:08:56.862Z,9.33
2022-11-18T13:11:43.599Z,9.34
2022-11-18T13:14:34.595Z,9.40
2022-11-18T13:17:25.233Z,9.41
2022-11-18T13:19:57.897Z,9.40
2022-11-18T13:22:43.484Z,9.36
2022-11-18T13:25:25.324Z,9.39
2022-11-18T13:28:01.483Z,9.39
2022-11-18T13:30:31.130Z,9.38
2022-11-18T13:33:00.232Z,9.38
2022-11-18T13:35:29.842Z,9.36
2022-11-18T13:37:59.984Z,9.35
2022-11-18T13:40:29.215Z,9.34
2022-11-18T13:42:57.551Z,9.32
2022-11-18T13:45:28.739Z,9.30
2022-11-18T13:48:01.612Z,9.28
2022-11-18T13:50:34.364Z,9.30
2022-11-18T13:53:10.103Z,9.31
2022-11-18T13:55:52.812Z,9.32
2022-11-18T13:58:55.683Z,9.36
2022-11-18T14:01:24.609Z,9.37
2022-11-18T14:03:54.386Z,9.37
2022-11-18T14:06:27.812Z,9.39
2022-11-18T14:09:06.563Z,9.39
2022-11-18T14:11:39.157Z,9.38
2022-11-18T14:14:07.683Z,9.37
2022-11-18T14:16:37.603Z,9.37
2022-11-18T14:19:05.877Z,9.36
2022-11-18T14:21:38.447Z,9.38
2022-11-18T14:24:06.897Z,9.39
2022-11-18T14:26:36.494Z,9.38
2022-11-18T14:29:20.802Z,9.38
2022-11-18T14:32:18.542Z,9.35
2022-11-18T14:34:47.032Z,9.30
2022-11-18T14:37:17.189Z,9.28
2022-11-18T14:39:56.870Z,9.23
2022-11-18T14:42:25.923Z,9.23
2022-11-18T14:44:53.516Z,9.23
2022-11-18T14:47:27.092Z,9.26
2022-11-18T14:49:54.695Z,9.26
2022-11-18T14:52:38.610Z,9.26
2022-11-18T14:55:06.982Z,9.25
2022-11-18T14:57:34.906Z,9.22
2022-11-18T15:00:02.835Z,9.21
2022-11-18T15:02:30.534Z,9.20
2022-11-18T15:04:58.421Z,9.21
2022-11-18T15:07:28.758Z,9.19
2022-11-18T15:09:57.780Z,9.20
2022-11-18T15:12:25.350Z,9.20
2022-11-18T15:14:52.901Z,9.17
2022-11-18T15:17:20.724Z,9.16
2022-11-18T15:19:48.358Z,9.16
2022-11-18T15:22:15.954Z,9.15
2022-11-18T15:24:43.654Z,9.13
2022-11-18T15:27:12.729Z,9.17
2022-11-18T15:29:41.526Z,9.18
2022-11-18T15:32:09.385Z,9.19
2022-11-18T15:34:37.168Z,9.20
2022-11-18T15:37:04.823Z,9.21
2022-11-18T15:39:32.533Z,9.22
2022-11-18T15:42:00.330Z,9.22
2022-11-18T15:44:29.892Z,9.24
2022-11-18T15:47:00.921Z,9.28
2022-11-18T15:49:28.710Z,9.25
2022-11-18T15:51:56.673Z,9.24
2022-11-18T15:54:24.922Z,9.23
2022-11-18T15:56:55.871Z,9.25
2022-11-18T16:12:55.617Z,9.24
2022-11-18T16:15:51.966Z,9.26
2022-11-18T16:18:45.850Z,9.26
2022-11-18T16:21:15.351Z,9.22
2022-11-18T16:23:44.965Z,9.19
2022-11-18T16:26:13.545Z,9.15
2022-11-18T16:28:43.474Z,9.13
2022-11-18T16:31:29.092Z,9.13
2022-11-18T16:33:57.871Z,9.15
2022-11-18T16:36:29.481Z,9.14
2022-11-18T16:38:58.791Z,9.12
2022-11-18T16:41:37.312Z,9.11
2022-11-18T16:44:16.800Z,9.08
2022-11-18T16:46:48.856Z,9.08
2022-11-18T16:49:22.633Z,9.09
2022-11-18T16:51:53.227Z,9.11
2022-11-18T16:54:23.346Z,9.12
2022-11-18T16:56:55.239Z,9.15
2022-11-18T16:59:35.395Z,9.14
2022-11-18T17:02:04.596Z,9.10
2022-11-18T17:04:35.843Z,9.13
2022-11-18T17:07:04.967Z,9.12
2022-11-18T17:09:34.716Z,9.14
2022-11-18T17:12:05.189Z,9.15
2022-11-18T17:14:38.443Z,9.18
2022-11-18T17:17:08.335Z,9.19
2022-11-18T17:19:40.190Z,9.20
2022-11-18T17:22:07.843Z,9.19
2022-11-18T17:24:36.352Z,9.21
2022-11-18T17:27:04.291Z,9.23
2022-11-18T17:29:34.507Z,9.27
2022-11-18T17:32:03.506Z,9.28
2022-11-18T17:34:31.191Z,9.31
2022-11-18T17:37:04.830Z,9.33
2022-11-18T17:39:35.112Z,9.33
2022-11-18T17:42:15.619Z,9.34
2022-11-18T17:44:43.953Z,9.35
2022-11-18T17:47:13.960Z,9.35
2022-11-18T17:49:43.461Z,9.36
2022-11-18T17:52:11.159Z,9.37
2022-11-18T17:54:38.811Z,9.36
2022-11-18T17:57:06.439Z,9.38
2022-11-18T17:59:34.581Z,9.37
2022-11-18T18:02:02.238Z,9.37
2022-11-18T18:04:31.658Z,9.37
2022-11-18T18:07:00.813Z,9.39
2022-11-18T18:09:30.918Z,9.38
2022-11-18T18:11:59.897Z,9.39
2022-11-18T18:14:26.691Z,9.39
2022-11-18T18:17:00.665Z,9.37
2022-11-18T18:19:29.073Z,9.37
2022-11-18T18:21:58.641Z,9.35
2022-11-18T18:24:29.141Z,9.32
2022-11-18T18:26:56.908Z,9.28
2022-11-18T18:29:25.815Z,9.28
2022-11-18T18:31:53.827Z,9.27
2022-11-18T18:34:22.519Z,9.27
2022-11-18T18:36:54.870Z,9.26
2022-11-18T18:39:24.562Z,9.26
2022-11-18T18:41:52.535Z,9.22
2022-11-18T18:44:20.745Z,9.19
2022-11-18T18:46:49.771Z,9.18
2022-11-18T18:49:20.615Z,9.15
2022-11-18T18:51:50.102Z,9.14
2022-11-18T18:54:20.301Z,9.13
2022-11-18T18:56:49.849Z,9.12
2022-11-18T18:59:17.861Z,9.10
2022-11-18T19:01:54.678Z,9.08
2022-11-18T19:04:25.710Z,9.05
2022-11-18T19:06:59.704Z,9.04
2022-11-18T19:09:31.528Z,9.02
2022-11-18T19:23:46.780Z,8.93
2022-11-18T19:59:24.702Z,8.96
2022-11-18T20:16:03.219Z,8.90
2022-11-18T20:27:15.307Z,8.87
2022-11-18T21:12:22.766Z,8.87
